sensor_id;sensor_type;location;lat;lon;timestamp;temperature;humidity
5222;DHT22;2630;52.036;8.514;2023-02-19T00:01:24;9.50;99.90
5222;DHT22;2630;52.036;8.514;2023-02-19T00:03:59;9.40;99.90
5222;DHT22;2630;52.036;8.514;2023-02-19T00:06:45;9.40;99.90
5222;DHT22;2630;52.036;8.514;2023-02-19T00:09:12;9.40;99.90
5222;DHT22;2630;52.036;8.514;2023-02-19T00:11:39;9.40;99.90
5222;DHT22;2630;52.036;8.514;2023-02-19T00:14:05;9.40;99.90
5222;DHT22;2630;52.036;8.514;2023-02-19T00:16:33;9.50;99.90
5222;DHT22;2630;52.036;8.514;2023-02-19T00:19:02;9.50;99.90
5222;DHT22;2630;52.036;8.514;2023-02-19T00:23:56;9.40;99.90
5222;DHT22;2630;52.036;8.514;2023-02-19T00:26:22;9.40;99.90
5222;DHT22;2630;52.036;8.514;2023-02-19T00:28:49;9.40;99.90
5222;DHT22;2630;52.036;8.514;2023-02-19T00:31:20;9.40;99.90
5222;DHT22;2630;52.036;8.514;2023-02-19T00:33:46;9.50;99.90
5222;DHT22;2630;52.036;8.514;2023-02-19T00:36:13;9.50;99.90
5222;DHT22;2630;52.036;8.514;2023-02-19T00:38:40;9.50;99.90
5222;DHT22;2630;52.036;8.514;2023-02-19T00:41:06;9.50;99.90
5222;DHT22;2630;52.036;8.514;2023-02-19T00:46:14;9.40;99.90
5222;DHT22;2630;52.036;8.514;2023-02-19T00:51:06;9.50;99.90
5222;DHT22;2630;52.036;8.514;2023-02-19T00:53:32;9.50;99.90
5222;DHT22;2630;52.036;8.514;2023-02-19T00:55:57;9.50;99.90
5222;DHT22;2630;52.036;8.514;2023-02-19T00:58:23;9.50;99.90
5222;DHT22;2630;52.036;8.514;2023-02-19T01:00:48;9.50;99.90
5222;DHT22;2630;52.036;8.514;2023-02-19T01:03:14;9.50;99.90
5222;DHT22;2630;52.036;8.514;2023-02-19T01:15:23;9.50;99.90
5222;DHT22;2630;52.036;8.514;2023-02-19T01:17:49;9.50;99.90
5222;DHT22;2630;52.036;8.514;2023-02-19T01:20:14;9.50;99.90
5222;DHT22;2630;52.036;8.514;2023-02-19T01:22:40;9.60;99.90
5222;DHT22;2630;52.036;8.514;2023-02-19T01:25:05;9.50;99.90
5222;DHT22;2630;52.036;8.514;2023-02-19T01:27:31;9.50;99.90
5222;DHT22;2630;52.036;8.514;2023-02-19T01:29:56;9.50;99.90
5222;DHT22;2630;52.036;8.514;2023-02-19T01:34:48;9.50;99.90
5222;DHT22;2630;52.036;8.514;2023-02-19T01:37:13;9.50;99.90
5222;DHT22;2630;52.036;8.514;2023-02-19T01:39:39;9.50;99.90
5222;DHT22;2630;52.036;8.514;2023-02-19T01:42:14;9.50;99.90
5222;DHT22;2630;52.036;8.514;2023-02-19T01:47:10;9.50;99.90
5222;DHT22;2630;52.036;8.514;2023-02-19T01:49:40;9.50;99.90
5222;DHT22;2630;52.036;8.514;2023-02-19T01:52:32;9.50;99.90
5222;DHT22;2630;52.036;8.514;2023-02-19T01:55:01;9.50;99.90
5222;DHT22;2630;52.036;8.514;2023-02-19T01:57:34;9.50;99.90
5222;DHT22;2630;52.036;8.514;2023-02-19T02:00:13;9.50;99.90
5222;DHT22;2630;52.036;8.514;2023-02-19T02:02:41;9.50;99.90
5222;DHT22;2630;52.036;8.514;2023-02-19T02:05:23;9.50;99.90
5222;DHT22;2630;52.036;8.514;2023-02-19T02:07:50;9.50;99.90
5222;DHT22;2630;52.036;8.514;2023-02-19T02:10:35;9.50;99.90
5222;DHT22;2630;52.036;8.514;2023-02-19T02:13:01;9.40;99.90
5222;DHT22;2630;52.036;8.514;2023-02-19T02:15:51;9.60;99.90
5222;DHT22;2630;52.036;8.514;2023-02-19T02:27:11;9.50;99.90
5222;DHT22;2630;52.036;8.514;2023-02-19T02:32:34;9.50;99.90
5222;DHT22;2630;52.036;8.514;2023-02-19T02:35:10;9.50;99.90
5222;DHT22;2630;52.036;8.514;2023-02-19T02:37:38;9.50;99.90
5222;DHT22;2630;52.036;8.514;2023-02-19T02:40:07;9.50;99.90
5222;DHT22;2630;52.036;8.514;2023-02-19T02:42:37;9.50;99.90
5222;DHT22;2630;52.036;8.514;2023-02-19T02:45:24;9.50;99.90
5222;DHT22;2630;52.036;8.514;2023-02-19T02:48:06;9.60;99.90
5222;DHT22;2630;52.036;8.514;2023-02-19T02:51:04;9.50;99.90
5222;DHT22;2630;52.036;8.514;2023-02-19T02:56:39;9.50;99.90
5222;DHT22;2630;52.036;8.514;2023-02-19T02:59:08;9.50;99.90
5222;DHT22;2630;52.036;8.514;2023-02-19T03:01:41;9.60;99.90
5222;DHT22;2630;52.036;8.514;2023-02-19T03:07:22;9.60;99.90
5222;DHT22;2630;52.036;8.514;2023-02-19T03:09:49;9.50;99.90
5222;DHT22;2630;52.036;8.514;2023-02-19T03:12:16;9.60;99.90
5222;DHT22;2630;52.036;8.514;2023-02-19T03:15:08;9.50;99.90
5222;DHT22;2630;52.036;8.514;2023-02-19T03:17:59;9.50;99.90
5222;DHT22;2630;52.036;8.514;2023-02-19T03:20:49;9.50;99.90
5222;DHT22;2630;52.036;8.514;2023-02-19T03:23:17;9.50;99.90
5222;DHT22;2630;52.036;8.514;2023-02-19T03:25:44;9.50;99.90
5222;DHT22;2630;52.036;8.514;2023-02-19T03:28:31;9.50;99.90
5222;DHT22;2630;52.036;8.514;2023-02-19T03:31:18;9.50;99.90
5222;DHT22;2630;52.036;8.514;2023-02-19T03:33:50;9.50;99.90
5222;DHT22;2630;52.036;8.514;2023-02-19T03:36:16;9.50;99.90
5222;DHT22;2630;52.036;8.514;2023-02-19T03:38:52;9.60;99.90
5222;DHT22;2630;52.036;8.514;2023-02-19T03:46:44;9.50;99.90
5222;DHT22;2630;52.036;8.514;2023-02-19T03:49:33;9.50;99.90
5222;DHT22;2630;52.036;8.514;2023-02-19T03:53:00;9.60;99.90
5222;DHT22;2630;52.036;8.514;2023-02-19T03:55:09;9.50;99.90
5222;DHT22;2630;52.036;8.514;2023-02-19T03:57:37;9.60;99.90
5222;DHT22;2630;52.036;8.514;2023-02-19T04:00:17;9.60;99.90
5222;DHT22;2630;52.036;8.514;2023-02-19T04:02:55;9.50;99.90
5222;DHT22;2630;52.036;8.514;2023-02-19T04:05:26;9.50;99.90
5222;DHT22;2630;52.036;8.514;2023-02-19T04:07:54;9.50;99.90
5222;DHT22;2630;52.036;8.514;2023-02-19T04:10:21;9.40;99.90
5222;DHT22;2630;52.036;8.514;2023-02-19T04:12:53;9.40;99.90
5222;DHT22;2630;52.036;8.514;2023-02-19T04:15:23;9.40;99.90
5222;DHT22;2630;52.036;8.514;2023-02-19T04:17:55;9.40;99.90
5222;DHT22;2630;52.036;8.514;2023-02-19T04:20:22;9.30;99.90
5222;DHT22;2630;52.036;8.514;2023-02-19T04:22:48;9.30;99.90
5222;DHT22;2630;52.036;8.514;2023-02-19T04:25:14;9.30;99.90
5222;DHT22;2630;52.036;8.514;2023-02-19T04:27:40;9.40;99.90
5222;DHT22;2630;52.036;8.514;2023-02-19T04:30:11;9.40;99.90
5222;DHT22;2630;52.036;8.514;2023-02-19T04:32:37;9.40;99.90
5222;DHT22;2630;52.036;8.514;2023-02-19T04:35:02;9.40;99.90
5222;DHT22;2630;52.036;8.514;2023-02-19T04:37:28;9.40;99.90
5222;DHT22;2630;52.036;8.514;2023-02-19T04:39:53;9.40;99.90
5222;DHT22;2630;52.036;8.514;2023-02-19T04:42:19;9.40;99.90
5222;DHT22;2630;52.036;8.514;2023-02-19T04:44:44;9.30;99.90
5222;DHT22;2630;52.036;8.514;2023-02-19T04:47:10;9.30;99.90
5222;DHT22;2630;52.036;8.514;2023-02-19T04:49:36;9.30;99.90
5222;DHT22;2630;52.036;8.514;2023-02-19T04:52:01;9.30;99.90
5222;DHT22;2630;52.036;8.514;2023-02-19T04:54:27;9.30;99.90
5222;DHT22;2630;52.036;8.514;2023-02-19T05:01:44;9.30;99.90
5222;DHT22;2630;52.036;8.514;2023-02-19T05:06:36;9.20;99.90
5222;DHT22;2630;52.036;8.514;2023-02-19T05:09:02;9.10;99.90
5222;DHT22;2630;52.036;8.514;2023-02-19T05:13:56;9.20;99.90
5222;DHT22;2630;52.036;8.514;2023-02-19T05:16:22;9.10;99.90
5222;DHT22;2630;52.036;8.514;2023-02-19T05:21:14;9.10;99.90
5222;DHT22;2630;52.036;8.514;2023-02-19T05:23:40;9.10;99.90
5222;DHT22;2630;52.036;8.514;2023-02-19T05:26:07;9.10;99.90
5222;DHT22;2630;52.036;8.514;2023-02-19T05:28:33;9.10;99.90
5222;DHT22;2630;52.036;8.514;2023-02-19T05:31:06;9.20;99.90
5222;DHT22;2630;52.036;8.514;2023-02-19T05:36:03;9.10;99.90
5222;DHT22;2630;52.036;8.514;2023-02-19T05:38:28;9.10;99.90
5222;DHT22;2630;52.036;8.514;2023-02-19T05:40:54;9.10;99.90
5222;DHT22;2630;52.036;8.514;2023-02-19T05:43:19;9.10;99.90
5222;DHT22;2630;52.036;8.514;2023-02-19T05:45:45;9.00;99.90
5222;DHT22;2630;52.036;8.514;2023-02-19T05:48:11;9.00;99.90
5222;DHT22;2630;52.036;8.514;2023-02-19T05:50:37;9.10;99.90
5222;DHT22;2630;52.036;8.514;2023-02-19T05:53:04;9.00;99.90
5222;DHT22;2630;52.036;8.514;2023-02-19T05:55:34;9.00;99.90
5222;DHT22;2630;52.036;8.514;2023-02-19T05:58:00;9.00;99.90
5222;DHT22;2630;52.036;8.514;2023-02-19T06:00:26;9.00;99.90
5222;DHT22;2630;52.036;8.514;2023-02-19T06:02:52;9.00;99.90
5222;DHT22;2630;52.036;8.514;2023-02-19T06:05:18;9.00;99.90
5222;DHT22;2630;52.036;8.514;2023-02-19T06:07:44;9.00;99.90
5222;DHT22;2630;52.036;8.514;2023-02-19T06:10:10;9.10;99.90
5222;DHT22;2630;52.036;8.514;2023-02-19T06:12:37;9.10;99.90
5222;DHT22;2630;52.036;8.514;2023-02-19T06:15:03;9.00;99.90
5222;DHT22;2630;52.036;8.514;2023-02-19T06:17:30;9.00;99.90
5222;DHT22;2630;52.036;8.514;2023-02-19T06:19:55;9.00;99.90
5222;DHT22;2630;52.036;8.514;2023-02-19T06:22:21;9.00;99.90
5222;DHT22;2630;52.036;8.514;2023-02-19T06:24:47;9.00;99.90
5222;DHT22;2630;52.036;8.514;2023-02-19T06:27:12;9.00;99.90
5222;DHT22;2630;52.036;8.514;2023-02-19T06:29:38;9.10;99.90
5222;DHT22;2630;52.036;8.514;2023-02-19T06:32:05;9.10;99.90
5222;DHT22;2630;52.036;8.514;2023-02-19T06:34:31;9.00;99.90
5222;DHT22;2630;52.036;8.514;2023-02-19T06:36:57;9.00;99.90
5222;DHT22;2630;52.036;8.514;2023-02-19T06:39:23;8.90;99.90
5222;DHT22;2630;52.036;8.514;2023-02-19T06:41:48;8.80;99.90
5222;DHT22;2630;52.036;8.514;2023-02-19T06:44:15;8.70;99.90
5222;DHT22;2630;52.036;8.514;2023-02-19T06:46:40;8.60;99.90
5222;DHT22;2630;52.036;8.514;2023-02-19T06:49:06;8.50;99.90
5222;DHT22;2630;52.036;8.514;2023-02-19T06:51:32;8.50;99.90
5222;DHT22;2630;52.036;8.514;2023-02-19T06:53:58;8.40;99.90
5222;DHT22;2630;52.036;8.514;2023-02-19T06:56:32;8.30;99.90
5222;DHT22;2630;52.036;8.514;2023-02-19T06:59:01;8.30;99.90
5222;DHT22;2630;52.036;8.514;2023-02-19T07:01:28;8.20;99.90
5222;DHT22;2630;52.036;8.514;2023-02-19T07:06:22;8.10;99.90
5222;DHT22;2630;52.036;8.514;2023-02-19T07:11:14;8.00;99.90
5222;DHT22;2630;52.036;8.514;2023-02-19T07:16:07;7.80;99.90
5222;DHT22;2630;52.036;8.514;2023-02-19T07:21:08;7.70;99.90
5222;DHT22;2630;52.036;8.514;2023-02-19T07:26:00;7.60;99.90
5222;DHT22;2630;52.036;8.514;2023-02-19T07:30:52;7.50;99.90
5222;DHT22;2630;52.036;8.514;2023-02-19T07:33:17;7.50;99.90
5222;DHT22;2630;52.036;8.514;2023-02-19T07:35:47;7.50;99.90
5222;DHT22;2630;52.036;8.514;2023-02-19T07:38:16;7.50;99.90
5222;DHT22;2630;52.036;8.514;2023-02-19T07:40:56;7.50;99.90
5222;DHT22;2630;52.036;8.514;2023-02-19T07:43:23;7.40;99.90
5222;DHT22;2630;52.036;8.514;2023-02-19T07:45:49;7.40;99.90
5222;DHT22;2630;52.036;8.514;2023-02-19T07:48:15;7.40;99.90
5222;DHT22;2630;52.036;8.514;2023-02-19T07:53:07;7.50;99.90
5222;DHT22;2630;52.036;8.514;2023-02-19T07:55:33;7.50;99.90
5222;DHT22;2630;52.036;8.514;2023-02-19T07:57:59;7.50;99.90
5222;DHT22;2630;52.036;8.514;2023-02-19T08:00:26;7.60;99.90
5222;DHT22;2630;52.036;8.514;2023-02-19T08:02:52;7.60;99.90
5222;DHT22;2630;52.036;8.514;2023-02-19T08:05:32;7.90;99.90
5222;DHT22;2630;52.036;8.514;2023-02-19T08:07:59;7.90;99.90
5222;DHT22;2630;52.036;8.514;2023-02-19T08:10:25;8.00;99.90
5222;DHT22;2630;52.036;8.514;2023-02-19T08:13:14;8.00;99.90
5222;DHT22;2630;52.036;8.514;2023-02-19T08:18:30;8.00;99.90
5222;DHT22;2630;52.036;8.514;2023-02-19T08:20:56;8.10;99.90
5222;DHT22;2630;52.036;8.514;2023-02-19T08:23:22;8.10;99.90
5222;DHT22;2630;52.036;8.514;2023-02-19T08:25:49;8.30;99.90
5222;DHT22;2630;52.036;8.514;2023-02-19T08:28:16;8.30;99.90
5222;DHT22;2630;52.036;8.514;2023-02-19T08:30:43;8.20;99.90
5222;DHT22;2630;52.036;8.514;2023-02-19T08:33:12;8.00;99.90
5222;DHT22;2630;52.036;8.514;2023-02-19T08:35:37;7.70;99.90
5222;DHT22;2630;52.036;8.514;2023-02-19T08:38:04;7.70;99.90
5222;DHT22;2630;52.036;8.514;2023-02-19T08:40:31;7.20;99.90
5222;DHT22;2630;52.036;8.514;2023-02-19T08:43:13;7.30;99.90
5222;DHT22;2630;52.036;8.514;2023-02-19T08:45:41;7.30;99.90
5222;DHT22;2630;52.036;8.514;2023-02-19T08:48:07;7.30;99.90
5222;DHT22;2630;52.036;8.514;2023-02-19T08:50:33;7.00;99.90
5222;DHT22;2630;52.036;8.514;2023-02-19T08:53:00;7.00;99.90
5222;DHT22;2630;52.036;8.514;2023-02-19T08:55:26;7.20;99.90
5222;DHT22;2630;52.036;8.514;2023-02-19T08:57:52;7.20;99.90
5222;DHT22;2630;52.036;8.514;2023-02-19T09:00:18;7.80;99.90
5222;DHT22;2630;52.036;8.514;2023-02-19T09:02:43;7.30;99.90
5222;DHT22;2630;52.036;8.514;2023-02-19T09:05:10;7.30;99.90
5222;DHT22;2630;52.036;8.514;2023-02-19T09:07:36;7.30;99.90
5222;DHT22;2630;52.036;8.514;2023-02-19T09:10:03;7.30;99.90
5222;DHT22;2630;52.036;8.514;2023-02-19T09:12:28;7.40;99.90
5222;DHT22;2630;52.036;8.514;2023-02-19T09:14:54;7.50;99.90
5222;DHT22;2630;52.036;8.514;2023-02-19T09:17:20;7.50;99.90
5222;DHT22;2630;52.036;8.514;2023-02-19T09:19:45;7.90;99.90
5222;DHT22;2630;52.036;8.514;2023-02-19T09:22:11;7.90;99.90
5222;DHT22;2630;52.036;8.514;2023-02-19T09:24:36;7.90;99.90
5222;DHT22;2630;52.036;8.514;2023-02-19T09:27:02;8.30;99.90
5222;DHT22;2630;52.036;8.514;2023-02-19T09:29:28;8.40;99.90
5222;DHT22;2630;52.036;8.514;2023-02-19T09:31:58;8.40;99.90
5222;DHT22;2630;52.036;8.514;2023-02-19T09:34:25;8.40;99.90
5222;DHT22;2630;52.036;8.514;2023-02-19T09:36:51;8.20;99.90
5222;DHT22;2630;52.036;8.514;2023-02-19T09:39:17;8.30;99.90
5222;DHT22;2630;52.036;8.514;2023-02-19T09:41:46;8.30;99.90
5222;DHT22;2630;52.036;8.514;2023-02-19T09:44:20;8.40;99.90
5222;DHT22;2630;52.036;8.514;2023-02-19T09:46:49;8.40;99.90
5222;DHT22;2630;52.036;8.514;2023-02-19T09:54:29;8.60;99.90
5222;DHT22;2630;52.036;8.514;2023-02-19T09:56:56;8.50;99.90
5222;DHT22;2630;52.036;8.514;2023-02-19T09:59:28;8.30;99.90
5222;DHT22;2630;52.036;8.514;2023-02-19T10:02:12;8.40;99.90
5222;DHT22;2630;52.036;8.514;2023-02-19T10:04:43;8.40;99.90
5222;DHT22;2630;52.036;8.514;2023-02-19T10:07:20;8.50;99.90
5222;DHT22;2630;52.036;8.514;2023-02-19T10:09:59;8.90;99.90
5222;DHT22;2630;52.036;8.514;2023-02-19T10:12:28;9.30;99.90
5222;DHT22;2630;52.036;8.514;2023-02-19T10:15:08;9.60;99.90
5222;DHT22;2630;52.036;8.514;2023-02-19T10:17:36;9.70;99.90
5222;DHT22;2630;52.036;8.514;2023-02-19T10:20:02;10.00;99.90
5222;DHT22;2630;52.036;8.514;2023-02-19T10:22:30;9.70;99.90
5222;DHT22;2630;52.036;8.514;2023-02-19T10:24:57;9.80;99.90
5222;DHT22;2630;52.036;8.514;2023-02-19T10:27:25;9.70;99.90
5222;DHT22;2630;52.036;8.514;2023-02-19T10:32:23;9.60;99.90
5222;DHT22;2630;52.036;8.514;2023-02-19T10:37:34;9.80;99.90
5222;DHT22;2630;52.036;8.514;2023-02-19T10:40:01;9.90;99.90
5222;DHT22;2630;52.036;8.514;2023-02-19T10:42:27;11.20;99.90
5222;DHT22;2630;52.036;8.514;2023-02-19T10:44:58;9.80;99.90
5222;DHT22;2630;52.036;8.514;2023-02-19T10:47:28;9.90;99.90
5222;DHT22;2630;52.036;8.514;2023-02-19T10:49:59;10.20;99.90
5222;DHT22;2630;52.036;8.514;2023-02-19T10:52:31;10.50;99.90
5222;DHT22;2630;52.036;8.514;2023-02-19T10:55:31;10.70;99.90
5222;DHT22;2630;52.036;8.514;2023-02-19T10:57:57;10.80;99.90
5222;DHT22;2630;52.036;8.514;2023-02-19T11:00:25;11.20;99.90
5222;DHT22;2630;52.036;8.514;2023-02-19T11:03:18;11.20;99.90
5222;DHT22;2630;52.036;8.514;2023-02-19T11:05:57;9.30;99.90
5222;DHT22;2630;52.036;8.514;2023-02-19T11:08:24;11.40;99.90
5222;DHT22;2630;52.036;8.514;2023-02-19T11:13:27;11.60;99.90
5222;DHT22;2630;52.036;8.514;2023-02-19T11:15:56;11.60;99.90
5222;DHT22;2630;52.036;8.514;2023-02-19T11:18:25;11.90;99.90
5222;DHT22;2630;52.036;8.514;2023-02-19T11:20:56;13.20;99.90
5222;DHT22;2630;52.036;8.514;2023-02-19T11:23:42;12.80;99.90
5222;DHT22;2630;52.036;8.514;2023-02-19T11:26:35;13.40;99.90
5222;DHT22;2630;52.036;8.514;2023-02-19T11:29:15;13.70;99.90
5222;DHT22;2630;52.036;8.514;2023-02-19T11:31:42;13.60;99.90
5222;DHT22;2630;52.036;8.514;2023-02-19T11:36:46;13.40;99.90
5222;DHT22;2630;52.036;8.514;2023-02-19T11:42:10;13.10;99.90
5222;DHT22;2630;52.036;8.514;2023-02-19T11:44:58;12.80;99.90
5222;DHT22;2630;52.036;8.514;2023-02-19T11:50:50;12.80;99.90
5222;DHT22;2630;52.036;8.514;2023-02-19T11:53:30;12.90;99.90
5222;DHT22;2630;52.036;8.514;2023-02-19T11:56:19;12.90;99.90
5222;DHT22;2630;52.036;8.514;2023-02-19T12:01:36;12.90;99.90
5222;DHT22;2630;52.036;8.514;2023-02-19T12:15:54;11.20;99.90
5222;DHT22;2630;52.036;8.514;2023-02-19T12:18:44;11.50;99.90
5222;DHT22;2630;52.036;8.514;2023-02-19T12:21:16;12.00;99.90
5222;DHT22;2630;52.036;8.514;2023-02-19T12:27:01;12.80;99.90
5222;DHT22;2630;52.036;8.514;2023-02-19T12:29:54;13.10;99.90
5222;DHT22;2630;52.036;8.514;2023-02-19T12:32:37;13.20;99.90
5222;DHT22;2630;52.036;8.514;2023-02-19T12:35:20;13.10;99.90
5222;DHT22;2630;52.036;8.514;2023-02-19T12:38:14;12.90;99.90
5222;DHT22;2630;52.036;8.514;2023-02-19T12:41:47;12.70;99.90
5222;DHT22;2630;52.036;8.514;2023-02-19T12:43:53;12.60;99.90
5222;DHT22;2630;52.036;8.514;2023-02-19T12:47:12;12.50;99.90
5222;DHT22;2630;52.036;8.514;2023-02-19T12:49:18;12.50;99.90
5222;DHT22;2630;52.036;8.514;2023-02-19T12:51:54;12.60;99.90
5222;DHT22;2630;52.036;8.514;2023-02-19T12:54:39;12.60;99.90
5222;DHT22;2630;52.036;8.514;2023-02-19T12:57:12;12.40;99.90
5222;DHT22;2630;52.036;8.514;2023-02-19T13:02:28;12.00;99.90
5222;DHT22;2630;52.036;8.514;2023-02-19T13:05:05;11.90;99.90
5222;DHT22;2630;52.036;8.514;2023-02-19T13:07:55;11.60;99.90
5222;DHT22;2630;52.036;8.514;2023-02-19T13:10:32;11.60;99.90
5222;DHT22;2630;52.036;8.514;2023-02-19T13:13:04;11.60;99.90
5222;DHT22;2630;52.036;8.514;2023-02-19T13:15:40;11.60;99.90
5222;DHT22;2630;52.036;8.514;2023-02-19T13:18:18;12.10;99.90
5222;DHT22;2630;52.036;8.514;2023-02-19T13:20:45;14.60;99.90
5222;DHT22;2630;52.036;8.514;2023-02-19T13:23:17;12.00;99.90
5222;DHT22;2630;52.036;8.514;2023-02-19T13:31:38;11.70;99.90
5222;DHT22;2630;52.036;8.514;2023-02-19T13:36:37;11.50;99.90
5222;DHT22;2630;52.036;8.514;2023-02-19T13:39:06;11.40;99.90
5222;DHT22;2630;52.036;8.514;2023-02-19T13:41:40;11.30;99.90
5222;DHT22;2630;52.036;8.514;2023-02-19T13:44:15;11.30;99.90
5222;DHT22;2630;52.036;8.514;2023-02-19T13:46:52;11.20;99.90
5222;DHT22;2630;52.036;8.514;2023-02-19T13:51:54;10.70;99.90
5222;DHT22;2630;52.036;8.514;2023-02-19T13:54:26;10.50;99.90
5222;DHT22;2630;52.036;8.514;2023-02-19T13:57:22;10.50;99.90
5222;DHT22;2630;52.036;8.514;2023-02-19T13:59:50;10.20;99.90
5222;DHT22;2630;52.036;8.514;2023-02-19T14:04:54;9.80;99.90
5222;DHT22;2630;52.036;8.514;2023-02-19T14:07:33;9.80;99.90
5222;DHT22;2630;52.036;8.514;2023-02-19T14:12:36;10.00;99.90
5222;DHT22;2630;52.036;8.514;2023-02-19T14:15:43;10.10;99.90
5222;DHT22;2630;52.036;8.514;2023-02-19T14:18:41;10.30;99.90
5222;DHT22;2630;52.036;8.514;2023-02-19T14:21:16;10.50;99.90
5222;DHT22;2630;52.036;8.514;2023-02-19T14:23:43;10.50;99.90
5222;DHT22;2630;52.036;8.514;2023-02-19T14:26:09;10.60;99.90
5222;DHT22;2630;52.036;8.514;2023-02-19T14:28:44;10.60;99.90
5222;DHT22;2630;52.036;8.514;2023-02-19T14:31:28;10.60;99.90
5222;DHT22;2630;52.036;8.514;2023-02-19T14:33:59;10.40;99.90
5222;DHT22;2630;52.036;8.514;2023-02-19T14:41:43;10.40;99.90
5222;DHT22;2630;52.036;8.514;2023-02-19T14:44:23;10.40;99.90
5222;DHT22;2630;52.036;8.514;2023-02-19T14:46:57;10.40;99.90
5222;DHT22;2630;52.036;8.514;2023-02-19T14:49:31;10.20;99.90
5222;DHT22;2630;52.036;8.514;2023-02-19T14:52:02;10.30;99.90
5222;DHT22;2630;52.036;8.514;2023-02-19T14:54:42;10.10;99.90
5222;DHT22;2630;52.036;8.514;2023-02-19T14:57:19;10.10;99.90
5222;DHT22;2630;52.036;8.514;2023-02-19T15:00:01;10.10;99.90
5222;DHT22;2630;52.036;8.514;2023-02-19T15:02:29;10.10;99.90
5222;DHT22;2630;52.036;8.514;2023-02-19T15:04:55;9.90;99.90
5222;DHT22;2630;52.036;8.514;2023-02-19T15:07:26;9.90;99.90
5222;DHT22;2630;52.036;8.514;2023-02-19T15:09:56;9.90;99.90
5222;DHT22;2630;52.036;8.514;2023-02-19T15:12:25;9.90;99.90
5222;DHT22;2630;52.036;8.514;2023-02-19T15:14:54;9.80;99.90
5222;DHT22;2630;52.036;8.514;2023-02-19T15:17:31;9.80;99.90
5222;DHT22;2630;52.036;8.514;2023-02-19T15:20:02;9.70;99.90
5222;DHT22;2630;52.036;8.514;2023-02-19T15:22:29;9.70;99.90
5222;DHT22;2630;52.036;8.514;2023-02-19T15:25:05;9.70;99.90
5222;DHT22;2630;52.036;8.514;2023-02-19T15:27:30;9.80;99.90
5222;DHT22;2630;52.036;8.514;2023-02-19T15:29:57;9.70;99.90
5222;DHT22;2630;52.036;8.514;2023-02-19T15:32:25;9.70;99.90
5222;DHT22;2630;52.036;8.514;2023-02-19T15:34:59;9.70;99.90
5222;DHT22;2630;52.036;8.514;2023-02-19T15:37:27;9.60;99.90
5222;DHT22;2630;52.036;8.514;2023-02-19T15:39:54;9.60;99.90
5222;DHT22;2630;52.036;8.514;2023-02-19T15:42:27;9.60;99.90
5222;DHT22;2630;52.036;8.514;2023-02-19T15:45:08;9.60;99.90
5222;DHT22;2630;52.036;8.514;2023-02-19T15:50:33;9.60;99.90
5222;DHT22;2630;52.036;8.514;2023-02-19T15:53:08;9.60;99.90
5222;DHT22;2630;52.036;8.514;2023-02-19T15:58:27;9.50;99.90
5222;DHT22;2630;52.036;8.514;2023-02-19T16:00:57;9.50;99.90
5222;DHT22;2630;52.036;8.514;2023-02-19T16:03:25;9.50;99.90
5222;DHT22;2630;52.036;8.514;2023-02-19T16:06:09;9.50;99.90
5222;DHT22;2630;52.036;8.514;2023-02-19T16:08:37;9.40;99.90
5222;DHT22;2630;52.036;8.514;2023-02-19T16:11:27;9.40;99.90
5222;DHT22;2630;52.036;8.514;2023-02-19T16:14:35;9.30;99.90
5222;DHT22;2630;52.036;8.514;2023-02-19T16:22:12;9.10;99.90
5222;DHT22;2630;52.036;8.514;2023-02-19T16:24:50;9.00;99.90
5222;DHT22;2630;52.036;8.514;2023-02-19T16:27:39;9.00;99.90
5222;DHT22;2630;52.036;8.514;2023-02-19T16:30:07;9.00;99.90
5222;DHT22;2630;52.036;8.514;2023-02-19T16:32:33;8.80;99.90
5222;DHT22;2630;52.036;8.514;2023-02-19T16:34:59;8.80;99.90
5222;DHT22;2630;52.036;8.514;2023-02-19T16:45:30;8.70;99.90
5222;DHT22;2630;52.036;8.514;2023-02-19T16:47:56;8.60;99.90
5222;DHT22;2630;52.036;8.514;2023-02-19T16:50:23;8.60;99.90
5222;DHT22;2630;52.036;8.514;2023-02-19T16:52:57;8.60;99.90
5222;DHT22;2630;52.036;8.514;2023-02-19T16:57:50;8.40;99.90
5222;DHT22;2630;52.036;8.514;2023-02-19T17:00:21;8.30;99.90
5222;DHT22;2630;52.036;8.514;2023-02-19T17:02:49;8.40;99.90
5222;DHT22;2630;52.036;8.514;2023-02-19T17:05:16;8.40;99.90
5222;DHT22;2630;52.036;8.514;2023-02-19T17:10:18;8.30;99.90
5222;DHT22;2630;52.036;8.514;2023-02-19T17:12:43;8.20;99.90
5222;DHT22;2630;52.036;8.514;2023-02-19T17:15:12;8.20;99.90
5222;DHT22;2630;52.036;8.514;2023-02-19T17:17:38;8.10;99.90
5222;DHT22;2630;52.036;8.514;2023-02-19T17:20:30;8.10;99.90
5222;DHT22;2630;52.036;8.514;2023-02-19T17:22:55;7.90;99.90
5222;DHT22;2630;52.036;8.514;2023-02-19T17:25:22;7.90;99.90
5222;DHT22;2630;52.036;8.514;2023-02-19T17:27:47;7.90;99.90
5222;DHT22;2630;52.036;8.514;2023-02-19T17:30:25;7.80;99.90
5222;DHT22;2630;52.036;8.514;2023-02-19T17:32:51;7.70;99.90
5222;DHT22;2630;52.036;8.514;2023-02-19T17:35:17;7.70;99.90
5222;DHT22;2630;52.036;8.514;2023-02-19T17:37:42;7.60;99.90
5222;DHT22;2630;52.036;8.514;2023-02-19T17:42:42;7.60;99.90
5222;DHT22;2630;52.036;8.514;2023-02-19T17:45:08;7.60;99.90
5222;DHT22;2630;52.036;8.514;2023-02-19T17:47:34;7.60;99.90
5222;DHT22;2630;52.036;8.514;2023-02-19T17:49:59;7.50;99.90
5222;DHT22;2630;52.036;8.514;2023-02-19T17:52:25;7.50;99.90
5222;DHT22;2630;52.036;8.514;2023-02-19T17:54:52;7.60;99.90
5222;DHT22;2630;52.036;8.514;2023-02-19T17:57:18;7.60;99.90
5222;DHT22;2630;52.036;8.514;2023-02-19T17:59:43;7.60;99.90
5222;DHT22;2630;52.036;8.514;2023-02-19T18:02:09;7.50;99.90
5222;DHT22;2630;52.036;8.514;2023-02-19T18:04:34;7.50;99.90
5222;DHT22;2630;52.036;8.514;2023-02-19T18:07:00;7.40;99.90
5222;DHT22;2630;52.036;8.514;2023-02-19T18:11:53;7.30;99.90
5222;DHT22;2630;52.036;8.514;2023-02-19T18:16:48;7.40;99.90
5222;DHT22;2630;52.036;8.514;2023-02-19T18:19:13;7.30;99.90
5222;DHT22;2630;52.036;8.514;2023-02-19T18:21:39;7.30;99.90
5222;DHT22;2630;52.036;8.514;2023-02-19T18:24:05;7.30;99.90
5222;DHT22;2630;52.036;8.514;2023-02-19T18:26:31;7.20;99.90
5222;DHT22;2630;52.036;8.514;2023-02-19T18:28:58;7.30;99.90
5222;DHT22;2630;52.036;8.514;2023-02-19T18:31:23;7.30;99.90
5222;DHT22;2630;52.036;8.514;2023-02-19T18:33:49;7.30;99.90
5222;DHT22;2630;52.036;8.514;2023-02-19T18:38:41;7.40;99.90
5222;DHT22;2630;52.036;8.514;2023-02-19T18:41:10;7.40;99.90
5222;DHT22;2630;52.036;8.514;2023-02-19T18:46:02;7.50;99.90
5222;DHT22;2630;52.036;8.514;2023-02-19T18:48:31;7.50;99.90
5222;DHT22;2630;52.036;8.514;2023-02-19T18:50:56;7.50;99.90
5222;DHT22;2630;52.036;8.514;2023-02-19T18:53:22;7.40;99.90
5222;DHT22;2630;52.036;8.514;2023-02-19T18:58:15;7.50;99.90
5222;DHT22;2630;52.036;8.514;2023-02-19T19:03:07;7.50;99.90
5222;DHT22;2630;52.036;8.514;2023-02-19T19:05:32;7.50;99.90
5222;DHT22;2630;52.036;8.514;2023-02-19T19:07:58;7.50;99.90
5222;DHT22;2630;52.036;8.514;2023-02-19T19:10:24;7.60;99.90
5222;DHT22;2630;52.036;8.514;2023-02-19T19:12:50;7.60;99.90
5222;DHT22;2630;52.036;8.514;2023-02-19T19:15:16;7.50;99.90
5222;DHT22;2630;52.036;8.514;2023-02-19T19:17:43;7.50;99.90
5222;DHT22;2630;52.036;8.514;2023-02-19T19:20:08;7.50;99.90
5222;DHT22;2630;52.036;8.514;2023-02-19T19:22:34;7.50;99.90
5222;DHT22;2630;52.036;8.514;2023-02-19T19:25:00;7.40;99.90
5222;DHT22;2630;52.036;8.514;2023-02-19T19:27:25;7.40;99.90
5222;DHT22;2630;52.036;8.514;2023-02-19T19:29:51;7.50;99.90
5222;DHT22;2630;52.036;8.514;2023-02-19T19:32:16;7.40;99.90
5222;DHT22;2630;52.036;8.514;2023-02-19T19:34:42;7.40;99.90
5222;DHT22;2630;52.036;8.514;2023-02-19T19:37:08;7.40;99.90
5222;DHT22;2630;52.036;8.514;2023-02-19T19:39:35;7.40;99.90
5222;DHT22;2630;52.036;8.514;2023-02-19T19:42:00;7.40;99.90